Time;durP1;ratioP1;P1;durP2;ratioP2;P2;SDS_P1;SDS_P2;PMS_P1;PMS_P2;Temp;Humidity;BMP_temperature;BMP_pressure;BME280_temperature;BME280_humidity;BME280_pressure;Samples;Min_cycle;Max_cycle;Signal;HPM_P1;HPM_P2
2022/12/28 00:01:34;;;;;;;13.98;5.40;;;;;;;;;;5033662;28;20119;-75
2022/12/28 00:04:02;;;;;;;14.68;5.90;;;;;;;;;;5019096;28;20521;-75
2022/12/28 00:06:28;;;;;;;10.63;5.15;;;;;;;;;;5032779;28;20088;-75
2022/12/28 00:08:55;;;;;;;15.80;5.68;;;;;;;;;;5040263;28;20412;-75
2022/12/28 00:11:22;;;;;;;15.02;4.20;;;;;;;;;;5033886;28;20533;-75
2022/12/28 00:13:48;;;;;;;8.82;4.65;;;;;;;;;;5033766;28;20055;-73
2022/12/28 00:16:17;;;;;;;6.80;3.65;;;;;;;;;;5022704;28;20051;-73
2022/12/28 00:18:43;;;;;;;17.55;5.68;;;;;;;;;;5035806;28;20076;-74
2022/12/28 00:21:09;;;;;;;16.45;6.30;;;;;;;;;;5016297;28;20507;-73
2022/12/28 00:23:38;;;;;;;15.15;6.07;;;;;;;;;;5032098;28;20649;-74
2022/12/28 00:26:08;;;;;;;15.35;6.57;;;;;;;;;;5050531;28;20039;-74
2022/12/28 00:28:35;;;;;;;13.32;5.35;;;;;;;;;;5033078;28;20117;-74
2022/12/28 00:31:01;;;;;;;10.23;6.30;;;;;;;;;;5035059;28;20048;-74
2022/12/28 00:33:27;;;;;;;10.52;5.75;;;;;;;;;;5035179;28;20654;-75
2022/12/28 00:35:57;;;;;;;11.38;7.07;;;;;;;;;;5017433;28;20086;-74
2022/12/28 00:38:23;;;;;;;13.52;5.68;;;;;;;;;;5034287;28;20919;-74
2022/12/28 00:40:49;;;;;;;15.30;7.85;;;;;;;;;;5030297;28;20078;-75
2022/12/28 00:43:15;;;;;;;18.05;6.82;;;;;;;;;;5032504;28;20044;-74
2022/12/28 00:45:45;;;;;;;15.80;6.45;;;;;;;;;;5040342;28;20044;-74
2022/12/28 00:48:11;;;;;;;18.27;7.22;;;;;;;;;;5023951;28;20138;-74
2022/12/28 00:50:37;;;;;;;12.40;6.18;;;;;;;;;;5036985;28;20094;-74
2022/12/28 00:53:04;;;;;;;10.65;5.55;;;;;;;;;;5036306;28;20068;-74
2022/12/28 00:55:30;;;;;;;20.38;6.53;;;;;;;;;;5034502;28;20542;-74
2022/12/28 00:58:00;;;;;;;14.93;6.32;;;;;;;;;;5037380;28;20044;-75
2022/12/28 01:00:26;;;;;;;17.88;7.82;;;;;;;;;;5035523;28;20517;-74
2022/12/28 01:02:52;;;;;;;14.68;7.90;;;;;;;;;;5021928;28;20044;-74
2022/12/28 01:05:18;;;;;;;11.52;6.05;;;;;;;;;;5035789;28;20055;-73
2022/12/28 01:07:44;;;;;;;10.77;6.65;;;;;;;;;;5035824;28;20947;-74
2022/12/28 01:10:10;;;;;;;20.15;5.90;;;;;;;;;;5036081;28;20048;-74
2022/12/28 01:12:36;;;;;;;13.65;7.63;;;;;;;;;;5036137;28;20079;-73
2022/12/28 01:15:03;;;;;;;18.25;7.70;;;;;;;;;;5022843;28;20500;-74
2022/12/28 01:17:29;;;;;;;14.57;7.28;;;;;;;;;;5035556;28;20052;-73
2022/12/28 01:19:55;;;;;;;14.77;8.35;;;;;;;;;;5036105;28;20070;-73
2022/12/28 01:22:22;;;;;;;18.05;7.72;;;;;;;;;;5036605;28;20089;-73
2022/12/28 01:24:48;;;;;;;15.88;8.25;;;;;;;;;;5031398;28;20043;-73
2022/12/28 01:27:14;;;;;;;11.98;7.93;;;;;;;;;;5034772;28;20157;-74
2022/12/28 01:29:40;;;;;;;13.10;6.80;;;;;;;;;;5014498;28;20419;-73
2022/12/28 01:32:07;;;;;;;16.98;8.95;;;;;;;;;;5052844;28;20040;-74
2022/12/28 01:34:34;;;;;;;10.40;5.00;;;;;;;;;;5016455;28;20037;-73
2022/12/28 01:37:00;;;;;;;13.95;7.53;;;;;;;;;;5035405;28;20128;-74
2022/12/28 01:39:26;;;;;;;16.73;8.50;;;;;;;;;;5050019;28;20310;-73
2022/12/28 01:41:52;;;;;;;11.13;6.05;;;;;;;;;;5034354;28;20035;-72
2022/12/28 01:44:24;;;;;;;14.25;7.38;;;;;;;;;;5032375;28;20722;-73
2022/12/28 01:47:00;;;;;;;9.25;5.93;;;;;;;;;;5031200;28;20050;-74
2022/12/28 01:49:32;;;;;;;13.07;6.72;;;;;;;;;;5034872;28;20048;-74
2022/12/28 01:52:16;;;;;;;12.93;7.63;;;;;;;;;;5035344;28;20098;-73
2022/12/28 01:54:45;;;;;;;11.77;5.97;;;;;;;;;;5038139;28;20522;-73
2022/12/28 01:57:11;;;;;;;15.93;6.45;;;;;;;;;;5034400;28;20193;-74
2022/12/28 01:59:40;;;;;;;13.13;7.63;;;;;;;;;;5038086;28;20622;-74
2022/12/28 02:02:06;;;;;;;10.35;6.90;;;;;;;;;;5032518;28;20059;-75
2022/12/28 02:04:32;;;;;;;11.43;6.82;;;;;;;;;;5036957;28;20052;-75
2022/12/28 02:06:58;;;;;;;17.20;8.07;;;;;;;;;;5021202;28;20240;-74
2022/12/28 02:09:28;;;;;;;11.93;8.13;;;;;;;;;;5020471;28;20521;-73
2022/12/28 02:11:55;;;;;;;12.98;7.00;;;;;;;;;;5035554;28;20054;-73
2022/12/28 02:14:21;;;;;;;19.52;9.00;;;;;;;;;;5022489;28;20697;-73
2022/12/28 02:16:48;;;;;;;15.63;6.50;;;;;;;;;;5035672;28;20044;-74
2022/12/28 02:19:18;;;;;;;15.98;7.10;;;;;;;;;;5036934;28;20044;-73
2022/12/28 02:21:47;;;;;;;13.57;7.90;;;;;;;;;;5038109;28;20498;-74
2022/12/28 02:24:36;;;;;;;11.90;7.93;;;;;;;;;;5017849;28;20040;-74
2022/12/28 02:27:05;;;;;;;18.30;9.13;;;;;;;;;;5031374;28;20102;-73
2022/12/28 02:29:37;;;;;;;15.50;8.18;;;;;;;;;;5053391;28;20056;-73
2022/12/28 02:32:10;;;;;;;11.32;6.68;;;;;;;;;;5050746;28;20063;-72
2022/12/28 02:34:48;;;;;;;11.20;6.43;;;;;;;;;;5034532;28;20092;-72
2022/12/28 02:37:26;;;;;;;13.30;7.93;;;;;;;;;;5037101;28;20127;-72
2022/12/28 02:39:54;;;;;;;10.07;6.95;;;;;;;;;;5035998;28;20069;-72
2022/12/28 02:42:22;;;;;;;15.60;10.25;;;;;;;;;;5034767;28;20044;-72
2022/12/28 02:50:18;;;;;;;16.75;7.97;;;;;;;;;;5033461;28;20059;-73
2022/12/28 02:52:58;;;;;;;11.68;8.35;;;;;;;;;;5025143;28;20093;-72
2022/12/28 02:58:51;;;;;;;15.25;9.90;;;;;;;;;;5050754;28;20705;-73
2022/12/28 03:01:37;;;;;;;12.95;10.38;;;;;;;;;;5033214;28;20498;-72
2022/12/28 03:04:29;;;;;;;16.23;7.65;;;;;;;;;;5033771;28;20116;-71
2022/12/28 03:09:48;;;;;;;13.88;9.98;;;;;;;;;;5033597;28;20069;-72
2022/12/28 03:12:18;;;;;;;12.60;9.02;;;;;;;;;;5033842;28;20043;-73
2022/12/28 03:14:47;;;;;;;11.23;7.82;;;;;;;;;;5035329;28;20052;-73
2022/12/28 03:31:08;;;;;;;11.23;6.43;;;;;;;;;;5032474;28;20063;-72
2022/12/28 03:33:36;;;;;;;7.15;6.22;;;;;;;;;;5019984;28;20049;-73
2022/12/28 03:36:07;;;;;;;13.82;9.02;;;;;;;;;;5047914;28;20044;-73
2022/12/28 03:38:45;;;;;;;12.32;8.60;;;;;;;;;;5029319;28;20547;-74
2022/12/28 03:41:14;;;;;;;11.10;8.45;;;;;;;;;;5030660;28;20506;-75
2022/12/28 03:43:52;;;;;;;7.30;6.25;;;;;;;;;;5031761;28;20632;-73
2022/12/28 03:46:18;;;;;;;9.55;7.05;;;;;;;;;;5018036;28;20044;-74
2022/12/28 03:48:47;;;;;;;11.52;7.55;;;;;;;;;;5031881;28;20109;-75
2022/12/28 03:51:14;;;;;;;8.52;6.50;;;;;;;;;;5034846;28;20049;-75
2022/12/28 03:53:44;;;;;;;11.73;7.55;;;;;;;;;;5008899;28;20048;-75
2022/12/28 03:56:12;;;;;;;12.00;8.30;;;;;;;;;;5030699;28;20040;-74
2022/12/28 03:58:38;;;;;;;9.82;8.32;;;;;;;;;;5032599;28;20640;-75
2022/12/28 04:01:05;;;;;;;7.75;6.47;;;;;;;;;;5032764;28;20041;-74
2022/12/28 04:03:31;;;;;;;11.02;9.00;;;;;;;;;;5017897;28;20052;-74
2022/12/28 04:05:57;;;;;;;10.32;8.27;;;;;;;;;;5030008;28;20168;-74
2022/12/28 04:08:23;;;;;;;11.13;7.80;;;;;;;;;;5029784;28;20048;-73
2022/12/28 04:10:49;;;;;;;12.70;7.13;;;;;;;;;;4996474;28;20076;-73
2022/12/28 04:13:15;;;;;;;7.20;5.97;;;;;;;;;;5029645;28;20051;-74
2022/12/28 04:15:41;;;;;;;8.73;7.30;;;;;;;;;;5030671;28;20044;-73
2022/12/28 04:18:08;;;;;;;10.15;7.35;;;;;;;;;;5031562;28;20046;-74
2022/12/28 04:20:34;;;;;;;13.88;8.40;;;;;;;;;;5030500;28;20047;-74
2022/12/28 04:23:00;;;;;;;10.50;8.27;;;;;;;;;;5003975;28;22336;-73
2022/12/28 04:25:26;;;;;;;13.57;9.02;;;;;;;;;;5050588;28;20762;-74
2022/12/28 04:27:52;;;;;;;12.18;9.18;;;;;;;;;;5049456;28;20391;-74
2022/12/28 04:30:18;;;;;;;17.15;9.85;;;;;;;;;;5016059;28;20089;-73
2022/12/28 04:32:44;;;;;;;17.00;7.75;;;;;;;;;;5028315;28;20137;-73
2022/12/28 04:35:10;;;;;;;16.50;8.90;;;;;;;;;;5029172;28;20059;-74
2022/12/28 04:37:37;;;;;;;7.53;6.40;;;;;;;;;;5029398;28;20680;-73
2022/12/28 04:40:03;;;;;;;7.72;6.75;;;;;;;;;;5029192;28;20466;-73
2022/12/28 04:42:29;;;;;;;7.68;5.70;;;;;;;;;;5025072;28;20050;-73
2022/12/28 04:44:55;;;;;;;15.23;9.13;;;;;;;;;;5028259;28;20044;-73
2022/12/28 04:47:21;;;;;;;10.02;6.78;;;;;;;;;;5030654;28;20047;-73
2022/12/28 04:49:47;;;;;;;13.13;9.15;;;;;;;;;;5029125;28;20048;-73
2022/12/28 04:52:14;;;;;;;12.07;7.55;;;;;;;;;;5029356;28;20092;-74
2022/12/28 04:54:40;;;;;;;10.57;8.15;;;;;;;;;;5029561;28;20047;-73
2022/12/28 04:57:06;;;;;;;13.02;9.52;;;;;;;;;;5029861;28;20053;-72
2022/12/28 04:59:32;;;;;;;9.30;6.65;;;;;;;;;;5030654;28;20043;-72
2022/12/28 05:01:58;;;;;;;7.05;6.10;;;;;;;;;;5006228;28;20512;-73
2022/12/28 05:04:24;;;;;;;9.18;7.57;;;;;;;;;;5013829;28;20519;-74
2022/12/28 05:06:50;;;;;;;11.93;8.13;;;;;;;;;;5026439;28;20044;-73
2022/12/28 05:09:18;;;;;;;8.48;6.25;;;;;;;;;;5031583;28;20072;-73
2022/12/28 05:11:44;;;;;;;11.52;9.32;;;;;;;;;;5049350;28;20075;-73
2022/12/28 05:14:10;;;;;;;9.55;7.68;;;;;;;;;;5027756;28;20784;-73
2022/12/28 05:16:36;;;;;;;10.18;7.85;;;;;;;;;;5014780;28;20174;-73
2022/12/28 05:19:03;;;;;;;7.72;5.45;;;;;;;;;;5031900;28;20131;-73
2022/12/28 05:21:29;;;;;;;7.80;6.18;;;;;;;;;;5050567;28;21807;-73
2022/12/28 05:23:55;;;;;;;8.70;6.90;;;;;;;;;;5029262;28;20079;-73
2022/12/28 05:26:23;;;;;;;9.10;7.32;;;;;;;;;;5014454;28;20051;-73
2022/12/28 05:28:49;;;;;;;8.25;7.28;;;;;;;;;;5027933;28;21906;-72
2022/12/28 05:31:17;;;;;;;9.25;7.82;;;;;;;;;;5014691;28;20044;-73
2022/12/28 05:33:43;;;;;;;8.00;6.00;;;;;;;;;;5021818;28;20595;-73
2022/12/28 05:36:11;;;;;;;9.70;7.28;;;;;;;;;;5036509;28;20048;-73
2022/12/28 05:38:37;;;;;;;12.63;9.02;;;;;;;;;;5034653;28;20254;-73
2022/12/28 05:41:04;;;;;;;11.98;9.02;;;;;;;;;;5036154;28;20412;-73
2022/12/28 05:43:30;;;;;;;7.57;6.53;;;;;;;;;;5025589;28;20479;-72
2022/12/28 05:46:00;;;;;;;9.85;7.75;;;;;;;;;;5034826;28;20634;-72
2022/12/28 05:48:29;;;;;;;9.75;7.70;;;;;;;;;;5022745;28;20111;-73
2022/12/28 05:50:57;;;;;;;7.15;6.18;;;;;;;;;;5034053;28;20075;-72
2022/12/28 05:53:24;;;;;;;12.13;9.43;;;;;;;;;;5054153;28;20144;-73
2022/12/28 05:55:50;;;;;;;10.50;8.30;;;;;;;;;;5037669;28;20165;-73
2022/12/28 05:58:16;;;;;;;15.65;10.95;;;;;;;;;;5020046;28;20041;-73
2022/12/28 06:00:42;;;;;;;11.07;9.07;;;;;;;;;;5018642;28;20476;-72
2022/12/28 06:03:08;;;;;;;11.73;8.60;;;;;;;;;;5023227;28;20151;-73
2022/12/28 06:05:34;;;;;;;15.90;12.25;;;;;;;;;;5012730;28;20044;-72
2022/12/28 06:08:01;;;;;;;10.82;8.52;;;;;;;;;;5020753;28;20033;-72
2022/12/28 06:10:27;;;;;;;12.75;10.27;;;;;;;;;;5036110;28;20636;-72
2022/12/28 06:12:53;;;;;;;15.27;11.68;;;;;;;;;;5037074;28;20043;-71
2022/12/28 06:15:19;;;;;;;10.05;8.50;;;;;;;;;;5036065;28;20068;-71
2022/12/28 06:17:45;;;;;;;16.45;12.15;;;;;;;;;;5036512;28;20063;-71
2022/12/28 06:20:11;;;;;;;10.32;8.10;;;;;;;;;;5018765;28;20040;-72
2022/12/28 06:22:37;;;;;;;15.68;12.52;;;;;;;;;;5034912;28;20380;-72
2022/12/28 06:25:04;;;;;;;18.52;12.48;;;;;;;;;;5039411;28;20091;-71
2022/12/28 06:27:30;;;;;;;19.17;13.95;;;;;;;;;;5040372;28;20070;-71
2022/12/28 06:29:56;;;;;;;27.73;18.70;;;;;;;;;;5060037;28;20037;-70
2022/12/28 06:32:22;;;;;;;14.77;11.63;;;;;;;;;;5037400;28;20119;-71
2022/12/28 06:34:48;;;;;;;23.65;16.58;;;;;;;;;;5015782;28;20056;-71
2022/12/28 06:37:14;;;;;;;17.02;13.45;;;;;;;;;;5022476;28;20047;-70
2022/12/28 06:39:40;;;;;;;27.83;18.70;;;;;;;;;;5038431;28;22011;-70
2022/12/28 06:42:06;;;;;;;19.23;12.95;;;;;;;;;;5038774;28;20040;-71
2022/12/28 06:44:32;;;;;;;19.52;14.75;;;;;;;;;;5026170;28;20480;-71
2022/12/28 06:46:58;;;;;;;28.38;17.27;;;;;;;;;;5041363;28;20037;-71
2022/12/28 06:49:24;;;;;;;23.48;17.30;;;;;;;;;;5021363;28;20137;-71
2022/12/28 06:51:50;;;;;;;20.15;15.30;;;;;;;;;;5026688;28;20052;-71
2022/12/28 06:54:17;;;;;;;14.00;10.98;;;;;;;;;;5039840;28;20040;-70
2022/12/28 06:56:43;;;;;;;15.35;12.23;;;;;;;;;;5034574;28;20093;-70
2022/12/28 06:59:09;;;;;;;17.90;12.57;;;;;;;;;;5052191;28;20041;-70
2022/12/28 07:01:37;;;;;;;16.42;14.15;;;;;;;;;;5056896;28;20052;-69
2022/12/28 07:04:03;;;;;;;18.80;11.85;;;;;;;;;;5062059;28;20032;-70
2022/12/28 07:06:30;;;;;;;18.67;14.05;;;;;;;;;;5042498;28;20815;-70
2022/12/28 07:09:00;;;;;;;16.42;13.20;;;;;;;;;;5044192;28;20048;-71
2022/12/28 07:11:27;;;;;;;16.20;12.75;;;;;;;;;;5027164;28;20396;-71
2022/12/28 07:13:53;;;;;;;16.42;12.70;;;;;;;;;;5047213;28;20044;-71
2022/12/28 07:16:20;;;;;;;19.30;13.30;;;;;;;;;;5012447;28;20484;-70
2022/12/28 07:18:46;;;;;;;20.63;15.25;;;;;;;;;;5031257;28;20054;-71
2022/12/28 07:21:16;;;;;;;13.68;9.45;;;;;;;;;;5061776;28;20381;-70
2022/12/28 07:23:42;;;;;;;15.85;11.93;;;;;;;;;;5040928;28;20095;-71
2022/12/28 07:26:13;;;;;;;16.85;11.70;;;;;;;;;;5060207;28;20051;-71
2022/12/28 07:28:40;;;;;;;20.02;15.93;;;;;;;;;;5047157;28;20048;-72
2022/12/28 07:31:10;;;;;;;20.23;14.35;;;;;;;;;;5028738;28;20056;-71
2022/12/28 07:33:38;;;;;;;17.02;11.60;;;;;;;;;;5041971;28;20099;-70
2022/12/28 07:36:05;;;;;;;16.80;11.10;;;;;;;;;;5022437;28;20051;-77
2022/12/28 07:38:31;;;;;;;12.60;9.45;;;;;;;;;;5026905;28;20044;-76
2022/12/28 07:41:02;;;;;;;10.73;7.70;;;;;;;;;;5038157;28;20056;-75
2022/12/28 07:43:29;;;;;;;15.35;11.68;;;;;;;;;;5039296;28;20092;-76
2022/12/28 07:46:01;;;;;;;15.07;10.32;;;;;;;;;;5041473;28;20407;-76
2022/12/28 07:48:29;;;;;;;16.85;11.75;;;;;;;;;;5043280;28;20060;-77
2022/12/28 07:50:55;;;;;;;16.02;10.75;;;;;;;;;;5024546;28;20044;-77
2022/12/28 07:53:22;;;;;;;16.27;11.85;;;;;;;;;;5030486;28;20040;-78
2022/12/28 07:55:55;;;;;;;15.25;10.77;;;;;;;;;;5041935;28;20188;-77
2022/12/28 07:58:22;;;;;;;15.57;9.55;;;;;;;;;;5038939;28;20213;-77
2022/12/28 08:00:48;;;;;;;19.02;10.13;;;;;;;;;;5038396;28;20040;-77
2022/12/28 08:03:15;;;;;;;15.05;11.07;;;;;;;;;;5056516;28;20511;-77
2022/12/28 08:05:41;;;;;;;20.95;12.65;;;;;;;;;;5039376;28;20050;-76
2022/12/28 08:08:08;;;;;;;20.90;12.68;;;;;;;;;;5056831;28;20655;-76
2022/12/28 08:10:34;;;;;;;24.27;14.65;;;;;;;;;;5039156;28;20041;-76
2022/12/28 08:13:00;;;;;;;26.08;14.50;;;;;;;;;;5045696;28;20849;-76
2022/12/28 08:15:26;;;;;;;25.10;15.82;;;;;;;;;;5056238;28;20048;-76
2022/12/28 08:17:56;;;;;;;27.33;15.13;;;;;;;;;;5040790;28;20074;-77
2022/12/28 08:20:22;;;;;;;27.60;14.65;;;;;;;;;;5038557;28;20040;-77
2022/12/28 08:22:48;;;;;;;19.85;12.45;;;;;;;;;;5039627;28;20044;-77
2022/12/28 08:25:14;;;;;;;27.55;17.00;;;;;;;;;;5024122;28;20102;-77
2022/12/28 08:27:40;;;;;;;14.77;9.88;;;;;;;;;;5039932;28;20059;-77
2022/12/28 08:30:07;;;;;;;25.45;13.98;;;;;;;;;;5038096;28;20070;-76
2022/12/28 08:32:33;;;;;;;26.00;14.65;;;;;;;;;;5041677;28;20044;-76
2022/12/28 08:34:59;;;;;;;20.33;14.93;;;;;;;;;;5039123;28;20498;-76
2022/12/28 08:37:25;;;;;;;13.90;8.75;;;;;;;;;;5038254;28;20044;-77
2022/12/28 08:39:51;;;;;;;29.30;16.55;;;;;;;;;;5059601;28;20048;-76
2022/12/28 08:42:17;;;;;;;40.50;19.17;;;;;;;;;;5058966;28;20044;-77
2022/12/28 08:44:43;;;;;;;24.38;16.25;;;;;;;;;;5044200;28;20051;-77
2022/12/28 08:47:11;;;;;;;16.95;10.98;;;;;;;;;;5050760;28;20079;-77
2022/12/28 08:49:37;;;;;;;23.20;14.80;;;;;;;;;;5073513;28;20565;-76
2022/12/28 08:52:03;;;;;;;20.70;12.50;;;;;;;;;;5039770;28;20051;-76
2022/12/28 08:54:29;;;;;;;24.42;16.50;;;;;;;;;;5027699;28;20391;-77
2022/12/28 08:56:56;;;;;;;28.27;18.20;;;;;;;;;;5038901;28;20197;-76
2022/12/28 08:59:22;;;;;;;24.27;16.20;;;;;;;;;;5025901;28;20048;-76
2022/12/28 09:01:48;;;;;;;30.75;20.08;;;;;;;;;;5035603;28;20331;-77
2022/12/28 09:04:15;;;;;;;28.27;15.85;;;;;;;;;;5041794;28;20052;-78
2022/12/28 09:06:41;;;;;;;24.33;17.27;;;;;;;;;;5059047;28;20044;-76
2022/12/28 09:09:09;;;;;;;21.83;14.07;;;;;;;;;;5031530;28;21043;-77
2022/12/28 09:11:36;;;;;;;17.08;11.15;;;;;;;;;;5043804;28;20783;-77
2022/12/28 09:14:03;;;;;;;23.08;16.90;;;;;;;;;;5039857;28;20707;-78
2022/12/28 09:16:30;;;;;;;20.00;12.23;;;;;;;;;;5040211;28;20047;-79
2022/12/28 09:18:57;;;;;;;26.83;16.80;;;;;;;;;;5037559;28;20056;-78
2022/12/28 09:21:24;;;;;;;28.75;15.52;;;;;;;;;;5038636;28;20094;-78
2022/12/28 09:23:50;;;;;;;30.48;17.20;;;;;;;;;;5036797;28;20071;-78
2022/12/28 09:26:21;;;;;;;22.40;14.20;;;;;;;;;;5040713;28;21800;-77
2022/12/28 09:28:48;;;;;;;24.83;15.30;;;;;;;;;;5040245;28;20072;-77
2022/12/28 09:31:14;;;;;;;29.73;18.02;;;;;;;;;;5058848;28;20499;-77
2022/12/28 09:36:29;;;;;;;20.63;12.77;;;;;;;;;;5037755;28;20121;-77
2022/12/28 09:38:56;;;;;;;22.17;14.27;;;;;;;;;;5040901;28;20055;-76
2022/12/28 09:41:26;;;;;;;18.80;11.23;;;;;;;;;;5060488;28;20379;-77
2022/12/28 09:43:53;;;;;;;16.80;11.50;;;;;;;;;;5042028;28;20405;-76
2022/12/28 09:46:20;;;;;;;14.15;9.73;;;;;;;;;;5020009;28;20647;-76
2022/12/28 09:48:50;;;;;;;14.95;10.52;;;;;;;;;;5060381;28;20472;-76
2022/12/28 09:51:16;;;;;;;15.52;8.73;;;;;;;;;;5038728;28;20086;-76
2022/12/28 09:53:43;;;;;;;10.32;6.70;;;;;;;;;;5056977;28;20055;-77
2022/12/28 09:56:24;;;;;;;17.35;10.23;;;;;;;;;;5041931;28;20048;-77
2022/12/28 09:58:50;;;;;;;13.18;8.43;;;;;;;;;;5041848;28;20437;-77
2022/12/28 10:01:17;;;;;;;15.15;8.38;;;;;;;;;;5039082;28;20146;-76
2022/12/28 10:03:44;;;;;;;16.65;9.40;;;;;;;;;;5058263;28;20147;-77
2022/12/28 10:06:21;;;;;;;16.08;9.23;;;;;;;;;;5035469;28;20037;-77
2022/12/28 10:08:57;;;;;;;18.33;10.55;;;;;;;;;;5029373;28;20463;-78
2022/12/28 10:11:25;;;;;;;10.75;6.93;;;;;;;;;;5058023;28;20655;-78
2022/12/28 10:13:56;;;;;;;19.50;9.30;;;;;;;;;;5061955;28;20119;-78
2022/12/28 10:16:23;;;;;;;14.90;10.00;;;;;;;;;;5044613;28;20044;-78
2022/12/28 10:18:49;;;;;;;14.05;7.63;;;;;;;;;;5041790;28;20059;-77
2022/12/28 10:21:18;;;;;;;12.65;7.72;;;;;;;;;;5044790;28;20044;-77
2022/12/28 10:23:46;;;;;;;12.73;8.95;;;;;;;;;;5030669;28;20052;-77
2022/12/28 10:26:15;;;;;;;12.10;7.30;;;;;;;;;;5062480;28;20051;-76
2022/12/28 10:28:44;;;;;;;12.73;7.88;;;;;;;;;;5043288;28;20041;-78
2022/12/28 10:31:11;;;;;;;11.70;7.88;;;;;;;;;;5058021;28;20040;-74
2022/12/28 10:33:38;;;;;;;8.95;5.82;;;;;;;;;;5031159;28;20040;-76
2022/12/28 10:36:04;;;;;;;10.98;6.72;;;;;;;;;;5026241;28;20047;-76
2022/12/28 10:38:32;;;;;;;11.05;7.00;;;;;;;;;;5043132;28;20048;-76
2022/12/28 10:41:02;;;;;;;11.63;6.97;;;;;;;;;;5041699;28;20036;-75
2022/12/28 10:43:30;;;;;;;13.65;7.60;;;;;;;;;;5057278;28;20084;-76
2022/12/28 10:45:57;;;;;;;12.05;6.97;;;;;;;;;;5041517;28;20044;-77
2022/12/28 10:48:30;;;;;;;12.27;7.50;;;;;;;;;;5034608;28;20052;-76
2022/12/28 10:50:59;;;;;;;13.80;7.35;;;;;;;;;;5042588;28;20103;-75
2022/12/28 10:53:26;;;;;;;13.18;7.65;;;;;;;;;;5049630;28;20077;-77
2022/12/28 10:56:06;;;;;;;16.40;8.20;;;;;;;;;;5041750;28;20419;-75
2022/12/28 10:58:32;;;;;;;17.60;7.55;;;;;;;;;;5031130;28;20050;-76
2022/12/28 11:01:00;;;;;;;19.38;8.35;;;;;;;;;;5041926;28;20101;-75
2022/12/28 11:03:27;;;;;;;13.38;6.90;;;;;;;;;;5030524;28;20048;-75
2022/12/28 11:06:09;;;;;;;9.93;5.55;;;;;;;;;;5043156;28;20144;-76
2022/12/28 11:08:35;;;;;;;11.43;6.55;;;;;;;;;;5062278;28;20051;-74
2022/12/28 11:11:01;;;;;;;12.32;6.35;;;;;;;;;;5028211;28;20139;-75
2022/12/28 11:13:28;;;;;;;15.38;6.60;;;;;;;;;;5041605;28;20047;-75
2022/12/28 11:15:54;;;;;;;10.50;6.20;;;;;;;;;;5008141;28;20400;-75
2022/12/28 11:18:20;;;;;;;11.07;6.53;;;;;;;;;;5041531;28;20048;-75
2022/12/28 11:20:48;;;;;;;8.60;5.32;;;;;;;;;;5041797;28;20516;-75
2022/12/28 11:23:17;;;;;;;9.75;5.57;;;;;;;;;;5059473;28;20485;-75
2022/12/28 11:25:43;;;;;;;13.65;7.13;;;;;;;;;;5038292;28;20055;-75
2022/12/28 11:28:28;;;;;;;14.10;6.90;;;;;;;;;;5040017;28;20417;-75
2022/12/28 11:30:54;;;;;;;16.10;9.13;;;;;;;;;;5038422;28;20235;-75
2022/12/28 11:33:25;;;;;;;8.63;4.95;;;;;;;;;;5039729;28;20046;-74
2022/12/28 11:35:54;;;;;;;10.82;5.65;;;;;;;;;;5040495;28;20172;-74
2022/12/28 11:38:41;;;;;;;12.00;7.43;;;;;;;;;;5042147;28;20122;-74
2022/12/28 11:41:11;;;;;;;11.75;6.75;;;;;;;;;;5043068;28;20036;-74
2022/12/28 11:43:39;;;;;;;11.23;6.45;;;;;;;;;;5026595;28;20048;-74
2022/12/28 11:46:24;;;;;;;9.18;5.80;;;;;;;;;;5037171;28;20127;-74
2022/12/28 11:48:54;;;;;;;10.32;5.95;;;;;;;;;;5028067;28;20063;-74
2022/12/28 11:51:29;;;;;;;7.15;4.80;;;;;;;;;;5041091;28;20105;-74
2022/12/28 11:53:56;;;;;;;7.30;4.75;;;;;;;;;;5057817;28;20029;-75
2022/12/28 11:56:23;;;;;;;8.05;5.95;;;;;;;;;;5037371;28;20158;-75
2022/12/28 11:58:58;;;;;;;8.60;5.05;;;;;;;;;;5058629;28;20077;-75
2022/12/28 12:01:32;;;;;;;6.20;3.58;;;;;;;;;;5036996;28;20986;-75
2022/12/28 12:03:58;;;;;;;5.05;3.88;;;;;;;;;;5036791;28;20041;-75
2022/12/28 12:06:43;;;;;;;5.10;3.75;;;;;;;;;;5039520;28;20124;-75
2022/12/28 12:09:24;;;;;;;7.05;4.05;;;;;;;;;;5042857;28;20075;-75
2022/12/28 12:11:57;;;;;;;5.97;4.63;;;;;;;;;;5038710;28;21390;-75
2022/12/28 12:14:30;;;;;;;8.15;4.88;;;;;;;;;;5058638;28;20036;-74
2022/12/28 12:17:01;;;;;;;7.00;4.78;;;;;;;;;;5025331;28;20051;-74
2022/12/28 12:19:30;;;;;;;5.22;3.75;;;;;;;;;;5057169;28;20097;-75
2022/12/28 12:22:01;;;;;;;7.03;4.55;;;;;;;;;;5038450;28;20050;-74
2022/12/28 12:24:30;;;;;;;8.05;5.22;;;;;;;;;;5024168;28;20587;-75
2022/12/28 12:27:02;;;;;;;10.10;5.72;;;;;;;;;;5040634;28;20076;-76
2022/12/28 12:29:37;;;;;;;9.82;4.78;;;;;;;;;;5039208;28;20107;-75
2022/12/28 12:32:12;;;;;;;7.43;5.43;;;;;;;;;;5038612;28;20056;-75
2022/12/28 12:34:43;;;;;;;8.07;5.20;;;;;;;;;;5025124;28;20160;-74
2022/12/28 12:37:09;;;;;;;8.90;6.47;;;;;;;;;;5039947;28;20044;-75
2022/12/28 12:39:42;;;;;;;4.82;4.28;;;;;;;;;;5021438;28;20063;-75
2022/12/28 12:42:08;;;;;;;7.85;5.70;;;;;;;;;;5024838;28;20179;-74
2022/12/28 12:44:37;;;;;;;6.18;5.10;;;;;;;;;;5038195;28;20063;-75
2022/12/28 12:47:03;;;;;;;6.80;5.20;;;;;;;;;;5040701;28;20052;-76
2022/12/28 12:49:35;;;;;;;6.95;5.03;;;;;;;;;;5041899;28;20063;-76
2022/12/28 12:52:14;;;;;;;5.93;3.28;;;;;;;;;;5034937;28;20091;-75
2022/12/28 12:54:50;;;;;;;6.05;4.43;;;;;;;;;;5071818;28;20040;-75
2022/12/28 12:57:19;;;;;;;4.05;3.17;;;;;;;;;;5055067;28;20143;-74
2022/12/28 13:00:09;;;;;;;6.18;4.85;;;;;;;;;;5051024;28;20372;-75
2022/12/28 13:02:49;;;;;;;5.35;4.82;;;;;;;;;;5031568;28;20142;-75
2022/12/28 13:05:21;;;;;;;4.25;3.55;;;;;;;;;;5041343;28;20131;-75
2022/12/28 13:07:47;;;;;;;6.50;4.38;;;;;;;;;;5040399;28;20051;-75
2022/12/28 13:10:15;;;;;;;3.67;2.38;;;;;;;;;;5043249;28;20380;-76
2022/12/28 13:12:42;;;;;;;7.40;3.50;;;;;;;;;;5040472;28;20095;-74
2022/12/28 13:15:15;;;;;;;4.03;3.55;;;;;;;;;;5058501;28;20116;-74
2022/12/28 13:17:57;;;;;;;4.18;3.78;;;;;;;;;;5045375;28;21825;-74
2022/12/28 13:20:23;;;;;;;3.72;3.28;;;;;;;;;;5041448;28;20514;-75
2022/12/28 13:22:50;;;;;;;4.43;3.33;;;;;;;;;;5025174;28;20059;-75
2022/12/28 13:25:32;;;;;;;3.55;2.85;;;;;;;;;;5044944;28;20522;-74
2022/12/28 13:28:00;;;;;;;2.42;2.17;;;;;;;;;;5044465;28;20393;-75
2022/12/28 13:30:26;;;;;;;5.72;4.65;;;;;;;;;;5043862;28;20096;-74
2022/12/28 13:33:02;;;;;;;5.57;3.80;;;;;;;;;;5039645;28;20052;-75
2022/12/28 13:35:29;;;;;;;4.55;3.20;;;;;;;;;;5042971;28;20040;-75
2022/12/28 13:38:14;;;;;;;4.55;3.30;;;;;;;;;;5057929;28;20044;-75
2022/12/28 13:40:40;;;;;;;3.22;2.90;;;;;;;;;;5041317;28;20078;-76
2022/12/28 13:43:07;;;;;;;4.43;3.72;;;;;;;;;;5028651;28;20043;-75
2022/12/28 13:45:33;;;;;;;6.18;3.17;;;;;;;;;;5064896;28;20043;-76
2022/12/28 13:48:00;;;;;;;6.75;4.40;;;;;;;;;;5050015;28;20615;-75
2022/12/28 13:50:29;;;;;;;3.85;3.50;;;;;;;;;;5037351;28;20058;-75
2022/12/28 13:52:57;;;;;;;5.20;4.22;;;;;;;;;;5053700;28;20068;-75
2022/12/28 13:55:39;;;;;;;6.57;3.50;;;;;;;;;;5042048;28;20036;-75
2022/12/28 13:58:09;;;;;;;5.95;4.22;;;;;;;;;;5050148;28;20054;-74
2022/12/28 14:00:36;;;;;;;4.07;3.22;;;;;;;;;;5054669;28;20039;-75
2022/12/28 14:03:06;;;;;;;5.45;4.63;;;;;;;;;;5053254;28;20037;-74
2022/12/28 14:05:33;;;;;;;3.72;3.28;;;;;;;;;;5040135;28;20056;-78
2022/12/28 14:07:59;;;;;;;4.00;3.25;;;;;;;;;;5051401;28;20074;-76
2022/12/28 14:10:25;;;;;;;4.00;3.45;;;;;;;;;;5049450;28;20056;-77
2022/12/28 14:12:52;;;;;;;3.13;2.38;;;;;;;;;;5050705;28;21683;-77
2022/12/28 14:15:18;;;;;;;3.85;2.70;;;;;;;;;;5048407;28;20057;-77
2022/12/28 14:17:46;;;;;;;3.40;2.70;;;;;;;;;;5051392;28;20048;-77
2022/12/28 14:20:12;;;;;;;2.88;2.38;;;;;;;;;;5049465;28;20420;-79
2022/12/28 14:22:39;;;;;;;2.47;2.28;;;;;;;;;;5032342;28;20460;-78
2022/12/28 14:25:12;;;;;;;6.05;2.58;;;;;;;;;;5050221;28;20056;-77
2022/12/28 14:27:58;;;;;;;4.82;3.00;;;;;;;;;;5043065;28;20104;-79
2022/12/28 14:30:51;;;;;;;4.47;2.00;;;;;;;;;;5026470;28;20488;-79
2022/12/28 14:33:21;;;;;;;2.30;2.10;;;;;;;;;;5059760;28;20412;-79
2022/12/28 14:35:49;;;;;;;3.58;1.88;;;;;;;;;;5043955;28;20049;-78
2022/12/28 14:38:18;;;;;;;5.03;2.65;;;;;;;;;;5030609;28;22058;-78
2022/12/28 14:40:44;;;;;;;7.40;2.70;;;;;;;;;;5049235;28;20052;-78
2022/12/28 14:43:16;;;;;;;3.10;2.17;;;;;;;;;;5059058;28;20127;-77
2022/12/28 14:45:46;;;;;;;2.70;2.45;;;;;;;;;;5060078;28;20147;-78
2022/12/28 14:48:31;;;;;;;3.20;2.45;;;;;;;;;;5047935;28;21709;-79
2022/12/28 14:51:26;;;;;;;5.72;2.83;;;;;;;;;;5051229;28;20434;-78
2022/12/28 14:54:11;;;;;;;3.88;2.38;;;;;;;;;;5021658;28;20415;-78
2022/12/28 14:56:39;;;;;;;4.05;3.10;;;;;;;;;;5042671;28;20100;-76
2022/12/28 14:59:05;;;;;;;3.35;2.90;;;;;;;;;;5045735;28;20101;-78
2022/12/28 15:01:42;;;;;;;8.45;3.55;;;;;;;;;;5056494;28;20048;-77
2022/12/28 15:04:23;;;;;;;7.18;3.95;;;;;;;;;;5066664;28;20028;-77
2022/12/28 15:06:49;;;;;;;8.00;3.63;;;;;;;;;;5049393;28;20053;-72
2022/12/28 15:09:16;;;;;;;7.20;4.18;;;;;;;;;;5043867;28;20044;-73